Time;durP1;ratioP1;P1;durP2;ratioP2;P2;SDS_P1;SDS_P2;PMS_P1;PMS_P2;Temp;Humidity;BMP_temperature;BMP_pressure;BME280_temperature;BME280_humidity;BME280_pressure;Samples;Min_cycle;Max_cycle;Signal;HPM_P1;HPM_P2
2023/10/21 00:00:21;;;;;;;1.90;1.08;;;;;;;15.52;52.12;100382.63;5042688;28;20390;-84
2023/10/21 00:02:46;;;;;;;1.02;0.82;;;;;;;15.45;52.38;100398.69;5025573;28;20777;-83
2023/10/21 00:05:12;;;;;;;1.67;1.10;;;;;;;15.34;52.82;100394.81;5041626;28;20406;-81
2023/10/21 00:07:37;;;;;;;2.20;1.20;;;;;;;15.22;53.19;100391.16;5025845;28;20382;-83
2023/10/21 00:10:07;;;;;;;3.05;1.70;;;;;;;15.22;53.12;100401.81;5027213;28;20402;-83
2023/10/21 00:12:34;;;;;;;1.10;0.77;;;;;;;15.36;52.80;100405.28;5026623;28;20499;-81
2023/10/21 00:14:59;;;;;;;1.15;1.00;;;;;;;15.23;53.15;100390.09;5026954;28;20446;-80
2023/10/21 00:17:26;;;;;;;1.20;0.77;;;;;;;15.38;52.70;100405.91;5043091;28;20410;-82
2023/10/21 00:19:52;;;;;;;1.63;1.17;;;;;;;15.37;52.80;100398.91;5027110;28;20481;-80
2023/10/21 00:22:17;;;;;;;1.80;1.10;;;;;;;15.32;52.97;100398.72;5027528;28;20489;-81
2023/10/21 00:24:43;;;;;;;1.20;0.67;;;;;;;15.46;52.51;100411.00;5043339;28;20383;-84
2023/10/21 00:27:09;;;;;;;1.80;1.20;;;;;;;15.53;52.33;100406.47;5025627;28;20425;-81
2023/10/21 00:29:34;;;;;;;1.33;1.10;;;;;;;15.58;51.74;100412.00;5026812;28;20463;-81
2023/10/21 00:32:01;;;;;;;1.33;1.05;;;;;;;15.60;51.94;100417.16;5025586;28;20441;-82
2023/10/21 00:34:27;;;;;;;1.23;0.77;;;;;;;15.43;52.29;100416.75;5025048;28;20413;-85
2023/10/21 00:36:52;;;;;;;1.10;0.90;;;;;;;15.37;52.46;100420.28;5026841;28;20780;-83
2023/10/21 00:39:18;;;;;;;0.97;0.60;;;;;;;15.31;52.75;100432.63;5025153;28;20452;-81
2023/10/21 00:41:43;;;;;;;1.00;0.60;;;;;;;15.15;53.27;100430.38;5025385;28;20483;-80
2023/10/21 00:44:09;;;;;;;2.20;1.20;;;;;;;14.86;54.36;100419.91;5031146;28;20394;-82
2023/10/21 00:46:35;;;;;;;1.13;0.80;;;;;;;14.97;53.86;100423.81;5028064;28;20459;-80
2023/10/21 00:49:03;;;;;;;0.63;0.60;;;;;;;15.08;53.63;100427.72;5025307;28;20417;-81
2023/10/21 00:51:29;;;;;;;0.60;0.40;;;;;;;15.00;53.77;100430.59;5024629;28;20489;-83
2023/10/21 00:53:56;;;;;;;1.80;1.13;;;;;;;14.98;54.06;100424.63;5026374;28;20544;-80
2023/10/21 00:56:22;;;;;;;1.13;0.90;;;;;;;14.93;54.02;100419.94;5041339;28;20931;-82
2023/10/21 00:58:47;;;;;;;0.70;0.60;;;;;;;14.73;54.75;100427.94;5026275;28;20386;-82
2023/10/21 01:01:13;;;;;;;1.47;0.87;;;;;;;14.79;54.67;100447.63;5029868;28;20889;-83
2023/10/21 01:03:40;;;;;;;0.82;0.63;;;;;;;14.73;54.87;100438.59;5029137;28;20398;-81
2023/10/21 01:06:06;;;;;;;1.60;0.90;;;;;;;14.84;54.57;100442.50;5030205;28;20433;-83
2023/10/21 01:08:45;;;;;;;1.97;1.23;;;;;;;14.79;54.74;100439.63;5028865;28;20509;-81
2023/10/21 01:11:12;;;;;;;0.80;0.70;;;;;;;14.71;54.81;100438.81;5030976;28;20414;-81
2023/10/21 01:13:38;;;;;;;2.00;1.08;;;;;;;14.74;54.57;100442.09;5016069;28;20402;-80
2023/10/21 01:16:03;;;;;;;0.73;0.52;;;;;;;14.70;54.81;100431.81;5031781;28;20391;-80
2023/10/21 01:18:36;;;;;;;0.70;0.60;;;;;;;14.79;54.52;100419.09;5030640;28;20394;-83
2023/10/21 01:21:03;;;;;;;0.70;0.63;;;;;;;15.01;54.17;100434.91;5030486;28;20416;-80
2023/10/21 01:23:30;;;;;;;0.90;0.70;;;;;;;15.17;53.28;100425.66;5028720;28;20406;-82
2023/10/21 01:25:55;;;;;;;0.50;0.43;;;;;;;15.23;52.86;100430.16;5030590;28;20402;-80
2023/10/21 01:28:21;;;;;;;0.70;0.60;;;;;;;15.16;53.28;100422.19;5030717;28;20498;-82
2023/10/21 01:30:47;;;;;;;0.93;0.70;;;;;;;15.21;53.07;100418.88;5030567;28;20393;-79
2023/10/21 01:33:13;;;;;;;1.90;1.80;;;;;;;15.31;52.80;100413.94;5028123;28;20478;-80
2023/10/21 01:35:38;;;;;;;0.50;0.33;;;;;;;15.37;52.33;100420.28;5028918;28;20389;-79
2023/10/21 01:38:04;;;;;;;0.43;0.33;;;;;;;15.43;52.44;100438.97;5028707;28;20439;-80
2023/10/21 01:40:29;;;;;;;0.67;0.57;;;;;;;15.38;52.29;100424.59;5039961;28;20564;-82
2023/10/21 01:42:55;;;;;;;0.70;0.70;;;;;;;15.22;52.67;100433.88;5037535;28;20788;-78
2023/10/21 01:45:21;;;;;;;0.80;0.80;;;;;;;15.18;52.95;100435.28;5028291;28;20441;-78
2023/10/21 01:47:46;;;;;;;1.20;0.52;;;;;;;15.03;53.31;100441.66;5027802;28;20468;-79
2023/10/21 01:50:12;;;;;;;0.55;0.50;;;;;;;14.95;53.73;100449.09;5027157;28;20501;-82
2023/10/21 01:52:38;;;;;;;4.70;0.73;;;;;;;14.87;54.31;100442.94;5027840;28;20383;-81
2023/10/21 01:55:05;;;;;;;1.20;1.10;;;;;;;14.81;54.54;100441.06;5029364;28;20378;-83
2023/10/21 01:57:32;;;;;;;0.65;0.60;;;;;;;14.88;54.66;100444.56;5029459;28;20879;-82
2023/10/21 02:00:04;;;;;;;1.08;0.98;;;;;;;14.81;54.67;100445.59;5027962;28;20412;-81
2023/10/21 02:02:30;;;;;;;0.68;0.50;;;;;;;14.95;54.14;100452.56;5027624;28;20417;-80
2023/10/21 02:04:55;;;;;;;1.50;1.40;;;;;;;15.04;53.71;100442.50;5028886;28;20382;-82
2023/10/21 02:07:21;;;;;;;1.23;1.00;;;;;;;15.15;53.27;100443.72;5029037;28;20382;-78
2023/10/21 02:09:48;;;;;;;0.80;0.60;;;;;;;15.27;53.01;100450.09;5029694;28;20420;-82
2023/10/21 02:12:13;;;;;;;0.68;0.50;;;;;;;15.25;53.21;100460.13;5028422;28;20531;-85
2023/10/21 02:14:39;;;;;;;0.85;0.60;;;;;;;15.29;52.85;100453.38;5027486;28;20430;-83
2023/10/21 02:17:05;;;;;;;0.40;0.40;;;;;;;15.35;52.78;100454.38;5028762;28;20397;-82
2023/10/21 02:19:31;;;;;;;0.70;0.53;;;;;;;15.42;52.20;100456.00;5027779;28;20386;-83
2023/10/21 02:21:56;;;;;;;0.40;0.30;;;;;;;15.43;52.17;100460.34;5027351;28;20397;-84
2023/10/21 02:24:22;;;;;;;0.50;0.40;;;;;;;15.45;51.96;100452.94;5027582;28;20892;-81
2023/10/21 02:26:49;;;;;;;0.70;0.63;;;;;;;15.47;51.99;100456.22;5027071;28;20926;-81
2023/10/21 02:29:15;;;;;;;0.68;0.50;;;;;;;15.44;52.11;100467.31;5028202;28;20509;-84
2023/10/21 02:31:41;;;;;;;0.50;0.47;;;;;;;15.45;51.88;100470.81;5028844;28;20394;-81
2023/10/21 02:34:07;;;;;;;0.30;0.30;;;;;;;15.46;51.83;100477.78;5028802;28;20395;-81
2023/10/21 02:36:34;;;;;;;0.50;0.50;;;;;;;15.44;51.96;100485.19;5030520;28;20796;-81
2023/10/21 02:38:59;;;;;;;0.55;0.55;;;;;;;15.42;51.72;100490.75;5028672;28;20888;-83
2023/10/21 02:41:26;;;;;;;1.30;0.55;;;;;;;15.37;51.68;100493.19;5028587;28;20393;-83
2023/10/21 02:43:52;;;;;;;0.57;0.40;;;;;;;15.36;51.66;100491.56;5028449;28;20411;-78
2023/10/21 02:46:21;;;;;;;1.10;0.80;;;;;;;15.34;51.57;100493.63;5026223;28;20409;-82
2023/10/21 02:48:47;;;;;;;0.88;0.52;;;;;;;15.27;51.54;100495.50;5027375;28;20462;-79
2023/10/21 02:51:17;;;;;;;0.37;0.37;;;;;;;15.13;51.85;100500.00;5028636;28;20470;-81
2023/10/21 02:53:43;;;;;;;1.40;1.30;;;;;;;15.01;52.42;100498.97;5025723;28;20430;-81
2023/10/21 02:56:10;;;;;;;0.40;0.30;;;;;;;14.97;52.39;100495.88;5046391;28;20505;-79
2023/10/21 02:58:36;;;;;;;0.55;0.55;;;;;;;15.05;52.22;100494.84;5027499;28;20386;-79
2023/10/21 03:01:14;;;;;;;0.70;0.70;;;;;;;15.05;51.90;100509.03;5009169;28;20393;-83
2023/10/21 03:03:40;;;;;;;0.45;0.45;;;;;;;15.00;51.98;100499.97;5026403;28;20417;-82
2023/10/21 03:06:06;;;;;;;0.22;0.22;;;;;;;15.05;51.95;100505.53;5009532;28;20375;-82
2023/10/21 03:08:32;;;;;;;0.40;0.40;;;;;;;14.91;51.90;100505.53;5027254;28;20409;-81
2023/10/21 03:10:57;;;;;;;1.20;0.90;;;;;;;14.93;52.01;100496.47;5026530;28;20749;-80
2023/10/21 03:13:23;;;;;;;0.40;0.40;;;;;;;14.91;52.04;100502.88;5026814;28;20481;-80
2023/10/21 03:15:49;;;;;;;0.87;0.60;;;;;;;14.89;51.91;100515.59;5027100;28;20397;-81
2023/10/21 03:18:15;;;;;;;0.20;0.20;;;;;;;14.79;52.24;100511.69;5028063;28;20404;-80
2023/10/21 03:20:49;;;;;;;0.52;0.52;;;;;;;14.62;52.75;100522.72;5026891;28;20382;-82
2023/10/21 03:23:15;;;;;;;0.60;0.60;;;;;;;14.44;53.28;100528.59;5027044;28;20904;-80
2023/10/21 03:25:40;;;;;;;1.03;1.03;;;;;;;14.41;53.28;100522.84;5026570;28;20386;-79
2023/10/21 03:28:06;;;;;;;0.70;0.70;;;;;;;14.35;53.51;100527.13;5026920;28;20383;-83
2023/10/21 03:30:32;;;;;;;0.40;0.40;;;;;;;14.26;53.66;100531.81;5025934;28;20386;-80
2023/10/21 03:32:57;;;;;;;0.50;0.50;;;;;;;14.28;53.56;100532.41;5025886;28;20463;-82
2023/10/21 03:35:23;;;;;;;0.43;0.43;;;;;;;14.29;53.29;100536.72;5026499;28;20391;-83
2023/10/21 03:37:49;;;;;;;0.70;0.70;;;;;;;14.27;53.46;100541.44;5026586;28;20439;-80
2023/10/21 03:40:14;;;;;;;0.30;0.30;;;;;;;14.37;52.95;100525.06;5026433;28;20382;-82
2023/10/21 03:42:41;;;;;;;0.30;0.30;;;;;;;14.48;52.58;100534.34;5027623;28;20441;-82
2023/10/21 03:45:09;;;;;;;0.20;0.20;;;;;;;14.47;52.35;100524.69;5026167;28;20926;-79
2023/10/21 03:47:35;;;;;;;0.45;0.45;;;;;;;14.34;52.84;100525.47;5026423;28;20457;-83
2023/10/21 03:50:02;;;;;;;0.70;0.50;;;;;;;14.38;52.60;100509.88;5039598;28;20434;-83
2023/10/21 03:52:28;;;;;;;0.55;0.55;;;;;;;14.19;53.25;100509.63;5032425;28;20414;-82
2023/10/21 03:54:56;;;;;;;0.90;0.90;;;;;;;14.05;53.28;100518.59;5026170;28;20473;-79
2023/10/21 03:57:22;;;;;;;0.40;0.40;;;;;;;14.13;53.41;100519.25;5025834;28;20522;-80
2023/10/21 03:59:47;;;;;;;0.50;0.50;;;;;;;14.19;53.04;100527.44;5026379;28;20418;-82
2023/10/21 04:02:13;;;;;;;0.30;0.30;;;;;;;14.20;52.66;100540.56;5025821;28;20410;-81
2023/10/21 04:04:39;;;;;;;0.53;0.53;;;;;;;13.92;53.56;100525.47;5026347;28;20500;-82
2023/10/21 04:07:05;;;;;;;0.43;0.43;;;;;;;13.84;53.91;100543.47;5027137;28;20740;-83
2023/10/21 04:09:31;;;;;;;1.37;1.27;;;;;;;13.54;54.79;100554.31;5025758;28;20418;-83
2023/10/21 04:11:57;;;;;;;0.93;0.93;;;;;;;13.35;55.49;100542.50;5040863;28;20393;-81
2023/10/21 04:14:22;;;;;;;0.60;0.60;;;;;;;13.53;55.05;100539.38;5027328;28;20430;-81
2023/10/21 04:16:49;;;;;;;0.15;0.15;;;;;;;13.67;54.25;100550.94;5026049;28;20781;-82
2023/10/21 04:19:15;;;;;;;0.60;0.60;;;;;;;13.47;54.70;100548.94;5026306;28;20482;-83
2023/10/21 04:21:41;;;;;;;0.55;0.55;;;;;;;13.36;55.03;100546.78;5026300;28;20398;-80
2023/10/21 04:24:07;;;;;;;0.50;0.50;;;;;;;13.38;55.03;100542.13;5026002;28;20414;-80
2023/10/21 04:26:32;;;;;;;0.50;0.50;;;;;;;13.42;54.81;100558.53;5026402;28;20394;-83
2023/10/21 04:28:58;;;;;;;3.20;1.03;;;;;;;13.35;54.82;100553.97;5025869;28;20414;-82
2023/10/21 04:31:24;;;;;;;0.45;0.45;;;;;;;13.16;55.35;100554.56;5027842;28;20378;-84
2023/10/21 04:33:50;;;;;;;1.45;1.35;;;;;;;13.16;55.54;100560.75;5025315;28;20426;-83
2023/10/21 04:36:19;;;;;;;0.32;0.32;;;;;;;13.09;55.83;100564.34;5009095;28;20397;-83
2023/10/21 04:38:45;;;;;;;0.80;0.80;;;;;;;13.06;55.96;100562.06;5026736;28;20436;-83
2023/10/21 04:41:10;;;;;;;0.50;0.40;;;;;;;13.23;55.35;100560.78;5026958;28;20386;-82
2023/10/21 04:43:36;;;;;;;0.17;0.17;;;;;;;13.36;54.63;100562.75;5027134;28;20410;-83
2023/10/21 04:46:02;;;;;;;0.43;0.20;;;;;;;13.39;54.37;100555.22;5025479;28;20382;-81
2023/10/21 04:48:28;;;;;;;0.10;0.10;;;;;;;13.39;54.39;100565.06;5031375;28;20398;-83
2023/10/21 04:50:54;;;;;;;0.70;0.70;;;;;;;13.32;54.49;100572.97;5027158;28;20861;-82
2023/10/21 04:53:20;;;;;;;0.30;0.30;;;;;;;13.26;54.96;100583.56;5026324;28;20394;-80
2023/10/21 04:55:46;;;;;;;0.40;0.40;;;;;;;13.24;54.69;100586.41;5025175;28;20391;-82
2023/10/21 04:58:11;;;;;;;0.50;0.50;;;;;;;13.11;55.05;100596.94;5026842;28;20386;-81
2023/10/21 05:00:37;;;;;;;0.20;0.20;;;;;;;13.01;55.77;100602.53;5026418;28;20788;-85
2023/10/21 05:03:12;;;;;;;0.43;0.43;;;;;;;13.11;55.36;100600.41;5026242;28;20615;-86
2023/10/21 05:05:38;;;;;;;1.77;1.40;;;;;;;13.22;55.01;100599.09;5024875;28;20738;-82
2023/10/21 05:08:07;;;;;;;0.40;0.40;;;;;;;13.28;55.02;100603.63;5025916;28;20459;-83
2023/10/21 05:10:32;;;;;;;0.40;0.40;;;;;;;13.41;54.37;100612.78;5027691;28;20469;-85
2023/10/21 05:12:58;;;;;;;0.57;0.57;;;;;;;13.32;54.61;100614.75;5025355;28;20910;-84
2023/10/21 05:15:23;;;;;;;0.32;0.32;;;;;;;13.20;55.00;100639.19;5026124;28;20952;-85
2023/10/21 05:17:49;;;;;;;1.10;0.50;;;;;;;13.17;55.11;100633.41;5026730;28;20417;-84
2023/10/21 05:20:15;;;;;;;0.60;0.60;;;;;;;13.20;55.27;100638.38;5028898;28;20406;-83
2023/10/21 05:22:40;;;;;;;0.70;0.70;;;;;;;12.87;56.51;100641.47;5030508;28;20421;-85
2023/10/21 05:25:09;;;;;;;1.80;0.82;;;;;;;12.84;56.72;100639.22;5027911;28;20411;-85
2023/10/21 05:27:38;;;;;;;0.70;0.70;;;;;;;12.97;56.09;100628.72;5028941;28;20394;-87
2023/10/21 05:30:05;;;;;;;0.40;0.40;;;;;;;13.06;56.01;100631.25;5028698;28;20414;-86
2023/10/21 05:32:30;;;;;;;0.22;0.22;;;;;;;13.17;55.96;100625.44;5030250;28;20390;-84
2023/10/21 05:34:56;;;;;;;0.30;0.30;;;;;;;13.25;55.60;100640.44;5036828;28;20456;-84
2023/10/21 05:37:26;;;;;;;0.80;0.80;;;;;;;13.39;55.39;100626.28;5043072;28;20395;-86
2023/10/21 05:39:51;;;;;;;0.30;0.30;;;;;;;13.61;54.57;100626.28;5041409;28;20399;-85
2023/10/21 05:42:17;;;;;;;0.43;0.43;;;;;;;13.71;54.43;100629.44;5045301;28;20433;-82
2023/10/21 05:44:42;;;;;;;0.30;0.30;;;;;;;13.84;54.08;100634.06;5043720;28;20397;-85
2023/10/21 05:47:09;;;;;;;0.30;0.30;;;;;;;13.83;54.13;100645.72;5035957;28;20452;-81
2023/10/21 05:49:34;;;;;;;0.57;0.45;;;;;;;13.89;54.18;100643.09;5034499;28;20410;-81
2023/10/21 05:52:02;;;;;;;0.45;0.45;;;;;;;13.91;54.26;100637.59;5029832;28;20390;-83
2023/10/21 05:54:31;;;;;;;0.35;0.35;;;;;;;14.00;53.95;100646.28;5031504;28;20478;-81
2023/10/21 05:56:59;;;;;;;0.40;0.40;;;;;;;13.96;53.92;100675.97;5032399;28;20398;-81
2023/10/21 05:59:25;;;;;;;0.30;0.30;;;;;;;13.95;54.41;100654.84;5032737;28;20390;-80
2023/10/21 06:01:50;;;;;;;0.97;0.77;;;;;;;13.99;54.37;100673.94;5032496;28;20391;-82
2023/10/21 06:04:24;;;;;;;0.47;0.47;;;;;;;14.06;54.11;100674.81;5032095;28;20501;-81
2023/10/21 06:06:54;;;;;;;0.60;0.60;;;;;;;14.24;54.13;100691.16;5031908;28;20394;-81
2023/10/21 06:09:23;;;;;;;0.80;0.73;;;;;;;14.22;53.98;100689.69;5031391;28;20410;-80
2023/10/21 06:11:53;;;;;;;0.60;0.60;;;;;;;14.29;54.19;100693.22;5032457;28;20452;-83
2023/10/21 06:14:24;;;;;;;0.30;0.30;;;;;;;14.33;53.68;100687.31;5032427;28;20390;-82
2023/10/21 06:16:49;;;;;;;2.57;1.73;;;;;;;14.37;54.10;100674.41;5033831;28;20387;-80
2023/10/21 06:19:17;;;;;;;0.40;0.40;;;;;;;14.52;53.74;100682.28;5031636;28;20405;-81
2023/10/21 06:21:46;;;;;;;1.15;1.05;;;;;;;14.48;53.83;100689.84;5032524;28;20440;-80
2023/10/21 06:24:12;;;;;;;0.47;0.47;;;;;;;14.36;54.21;100695.94;5031211;28;20500;-81
2023/10/21 06:26:47;;;;;;;0.45;0.45;;;;;;;14.32;54.71;100687.50;5033309;28;20769;-79
2023/10/21 06:29:23;;;;;;;0.87;0.77;;;;;;;14.44;54.55;100693.09;5032971;28;20919;-81
2023/10/21 06:31:53;;;;;;;0.30;0.30;;;;;;;14.42;54.47;100685.31;5035475;28;20420;-82
2023/10/21 06:34:21;;;;;;;0.63;0.55;;;;;;;14.23;55.16;100702.81;5034445;28;20846;-82
2023/10/21 06:36:49;;;;;;;0.20;0.20;;;;;;;14.46;54.57;100696.41;5031974;28;20395;-81
2023/10/21 06:39:15;;;;;;;0.70;0.32;;;;;;;14.38;54.89;100699.22;5031890;28;20765;-83
2023/10/21 06:41:43;;;;;;;3.20;0.80;;;;;;;14.36;55.15;100702.09;5031990;28;20394;-80
2023/10/21 06:44:09;;;;;;;1.20;0.90;;;;;;;14.47;55.18;100706.06;5031433;28;20913;-81
2023/10/21 06:46:34;;;;;;;0.57;0.57;;;;;;;14.37;55.19;100713.56;5031322;28;20433;-82
2023/10/21 06:49:05;;;;;;;0.52;0.52;;;;;;;14.39;55.05;100711.56;5032545;28;20448;-83
2023/10/21 06:51:36;;;;;;;0.40;0.40;;;;;;;14.61;54.32;100712.34;5032121;28;20397;-80
2023/10/21 06:54:07;;;;;;;0.40;0.40;;;;;;;14.89;53.93;100712.25;5032530;28;20463;-81
2023/10/21 06:56:36;;;;;;;0.20;0.20;;;;;;;15.06;53.54;100712.75;5030870;28;20418;-81
2023/10/21 06:59:03;;;;;;;0.43;0.43;;;;;;;15.18;53.27;100707.63;5030219;28;20414;-82
2023/10/21 07:01:32;;;;;;;0.40;0.40;;;;;;;15.35;53.07;100705.44;5031280;28;20406;-81
2023/10/21 07:03:58;;;;;;;0.32;0.32;;;;;;;15.45;52.93;100704.03;5031784;28;20406;-80
2023/10/21 07:06:28;;;;;;;0.57;0.57;;;;;;;15.49;52.64;100707.13;5030025;28;20750;-81
2023/10/21 07:08:54;;;;;;;1.65;1.02;;;;;;;15.50;52.93;100719.44;5030751;28;20434;-80
2023/10/21 07:11:24;;;;;;;0.90;0.70;;;;;;;15.66;52.76;100731.59;5031062;28;20407;-81
2023/10/21 07:13:49;;;;;;;0.73;0.73;;;;;;;15.81;52.56;100726.09;5030310;28;20386;-82
2023/10/21 07:16:15;;;;;;;0.30;0.30;;;;;;;15.89;52.39;100725.09;5029526;28;20888;-84
2023/10/21 07:18:41;;;;;;;0.40;0.30;;;;;;;15.89;52.51;100709.88;5030991;28;20473;-80
2023/10/21 07:21:12;;;;;;;0.80;0.60;;;;;;;15.85;52.80;100717.47;5033310;28;20404;-81
2023/10/21 07:23:38;;;;;;;0.77;0.77;;;;;;;15.96;52.39;100707.22;5032149;28;20596;-82
2023/10/21 07:26:04;;;;;;;0.50;0.50;;;;;;;16.05;52.53;100700.63;5031082;28;20481;-83
2023/10/21 07:28:33;;;;;;;1.20;0.50;;;;;;;16.28;52.17;100710.03;5030970;28;20931;-81
2023/10/21 07:31:00;;;;;;;0.30;0.30;;;;;;;16.33;51.99;100707.56;5031943;28;20931;-83
2023/10/21 07:33:33;;;;;;;0.93;0.47;;;;;;;16.46;51.85;100706.72;5032413;28;20397;-82
2023/10/21 07:35:58;;;;;;;0.55;0.55;;;;;;;16.64;51.66;100709.59;5031181;28;20456;-81
2023/10/21 07:38:24;;;;;;;1.67;1.57;;;;;;;16.69;51.55;100708.94;5032450;28;20382;-81
2023/10/21 07:40:50;;;;;;;0.85;0.60;;;;;;;16.84;51.45;100711.41;5034203;28;20386;-83
2023/10/21 07:43:18;;;;;;;0.50;0.50;;;;;;;16.91;51.39;100720.25;5032685;28;20445;-82
2023/10/21 07:45:50;;;;;;;0.20;0.20;;;;;;;17.08;51.36;100723.25;5031960;28;20390;-82
2023/10/21 07:48:25;;;;;;;0.40;0.40;;;;;;;17.11;51.10;100707.59;5033449;28;20398;-81
2023/10/21 07:50:57;;;;;;;0.50;0.50;;;;;;;17.24;51.15;100727.31;5030292;28;20977;-80
2023/10/21 07:53:22;;;;;;;0.55;0.40;;;;;;;17.35;50.81;100706.00;5030474;28;20876;-82
2023/10/21 07:55:52;;;;;;;0.65;0.65;;;;;;;17.50;50.67;100708.41;5031313;28;20408;-83
2023/10/21 07:58:19;;;;;;;0.40;0.40;;;;;;;17.52;50.70;100708.16;5030943;28;20378;-82
2023/10/21 08:00:44;;;;;;;0.60;0.40;;;;;;;17.61;50.42;100712.25;5030486;28;20472;-87
2023/10/21 08:03:17;;;;;;;2.33;1.65;;;;;;;17.77;50.25;100703.69;5036013;28;20402;-91
2023/10/21 08:05:43;;;;;;;1.08;0.88;;;;;;;17.95;49.93;100711.00;5016945;28;20394;-88
2023/10/21 08:08:10;;;;;;;0.43;0.40;;;;;;;18.03;49.92;100696.50;5032384;28;20395;-85
2023/10/21 08:10:36;;;;;;;1.10;1.00;;;;;;;18.16;49.94;100703.59;5037123;28;20382;-86
2023/10/21 08:13:02;;;;;;;0.93;0.50;;;;;;;18.39;49.59;100704.84;5034842;28;20394;-84
2023/10/21 08:15:29;;;;;;;0.40;0.40;;;;;;;18.41;49.59;100698.19;5013050;28;20390;-84
2023/10/21 08:17:59;;;;;;;0.40;0.40;;;;;;;18.67;49.24;100712.38;5030926;28;20816;-82
2023/10/21 08:20:26;;;;;;;0.33;0.33;;;;;;;18.66;49.01;100700.00;5029628;28;20896;-84
2023/10/21 08:22:55;;;;;;;0.50;0.50;;;;;;;18.63;48.99;100693.19;5029048;28;20406;-83
2023/10/21 08:25:20;;;;;;;0.70;0.70;;;;;;;18.68;49.03;100695.22;5030059;28;20440;-82
2023/10/21 08:27:48;;;;;;;0.70;0.70;;;;;;;18.83;48.94;100697.56;5030040;28;20497;-81
2023/10/21 08:30:20;;;;;;;0.57;0.57;;;;;;;18.89;48.76;100700.16;5029933;28;20429;-82
2023/10/21 08:32:47;;;;;;;0.98;0.60;;;;;;;18.75;48.82;100709.41;5029840;28;20474;-83
2023/10/21 08:35:13;;;;;;;0.52;0.52;;;;;;;18.89;48.76;100707.41;5031228;28;20383;-81
2023/10/21 08:37:49;;;;;;;0.63;0.63;;;;;;;19.00;48.43;100706.66;5030276;28;20409;-82
2023/10/21 08:40:49;;;;;;;0.90;0.60;;;;;;;18.99;48.61;100710.38;5039438;28;20398;-85
2023/10/21 08:43:22;;;;;;;0.40;0.40;;;;;;;19.15;48.53;100703.56;5046322;28;20406;-82
2023/10/21 08:45:52;;;;;;;0.80;0.80;;;;;;;19.21;48.43;100705.34;5029652;28;20885;-82
2023/10/21 08:48:18;;;;;;;0.95;0.75;;;;;;;19.22;48.25;100703.47;5012523;28;20888;-82
2023/10/21 08:50:50;;;;;;;0.50;0.50;;;;;;;19.15;48.34;100702.75;5031399;28;20452;-83
2023/10/21 08:53:27;;;;;;;0.90;0.63;;;;;;;19.20;48.55;100709.06;5030660;28;20456;-82
2023/10/21 08:55:55;;;;;;;0.32;0.32;;;;;;;19.45;48.10;100711.63;5013472;28;20428;-83
2023/10/21 08:58:28;;;;;;;0.27;0.27;;;;;;;19.68;47.39;100710.88;5029865;28;20382;-82
2023/10/21 09:00:56;;;;;;;0.80;0.80;;;;;;;19.80;47.14;100705.53;5030029;28;20398;-82
2023/10/21 09:03:25;;;;;;;0.40;0.40;;;;;;;19.84;47.33;100709.41;4996605;28;20409;-82
2023/10/21 09:06:11;;;;;;;1.50;0.70;;;;;;;19.86;47.26;100703.78;5028853;28;20452;-82
2023/10/21 09:08:42;;;;;;;0.80;0.40;;;;;;;19.96;47.16;100704.03;5012870;28;20397;-83
2023/10/21 09:11:24;;;;;;;0.50;0.50;;;;;;;19.97;46.87;100710.22;5031128;28;20437;-82
2023/10/21 09:13:52;;;;;;;1.10;0.60;;;;;;;20.22;46.57;100693.84;5031550;28;20388;-81
2023/10/21 09:16:22;;;;;;;1.05;0.60;;;;;;;20.38;46.11;100695.03;5029508;28;20378;-82
2023/10/21 09:19:07;;;;;;;1.80;0.70;;;;;;;20.57;45.93;100710.00;5028521;28;20766;-84
2023/10/21 09:21:38;;;;;;;1.90;0.70;;;;;;;20.64;45.73;100701.81;5029192;28;20389;-82
2023/10/21 09:24:05;;;;;;;0.70;0.63;;;;;;;20.69;45.64;100703.78;5029843;28;20967;-82
2023/10/21 09:26:42;;;;;;;1.07;0.97;;;;;;;20.88;45.55;100699.06;5031326;28;20496;-82
2023/10/21 09:29:20;;;;;;;0.50;0.40;;;;;;;20.92;45.41;100700.22;5000710;28;20994;-82
2023/10/21 09:31:47;;;;;;;0.80;0.40;;;;;;;21.05;45.23;100702.66;5019675;28;20916;-82
2023/10/21 09:34:29;;;;;;;0.55;0.32;;;;;;;21.13;45.04;100696.88;5018955;28;20750;-83
2023/10/21 09:37:03;;;;;;;0.75;0.43;;;;;;;21.16;44.90;100688.31;5015821;28;20386;-82
2023/10/21 09:39:32;;;;;;;0.60;0.40;;;;;;;21.32;44.43;100683.19;5032495;28;20530;-83
2023/10/21 09:42:06;;;;;;;0.35;0.35;;;;;;;21.37;44.33;100686.81;5032692;28;20378;-85
2023/10/21 09:44:38;;;;;;;0.95;0.95;;;;;;;21.36;44.47;100685.16;4999809;28;20394;-85
2023/10/21 09:47:11;;;;;;;0.40;0.40;;;;;;;21.55;43.85;100685.81;5015420;28;20387;-83
2023/10/21 09:49:40;;;;;;;0.65;0.40;;;;;;;21.30;44.33;100680.75;5015182;28;20792;-83
2023/10/21 09:52:09;;;;;;;0.70;0.67;;;;;;;21.12;45.09;100679.06;5031472;28;20398;-84
2023/10/21 09:54:44;;;;;;;0.30;0.30;;;;;;;21.31;44.76;100674.28;5031991;28;20390;-83
2023/10/21 09:57:13;;;;;;;0.30;0.30;;;;;;;21.42;44.28;100677.16;5031874;28;20837;-84
2023/10/21 09:59:46;;;;;;;0.40;0.40;;;;;;;21.66;43.24;100672.47;5015637;28;20386;-84
2023/10/21 10:02:31;;;;;;;;;;;;;;;;;;;;;
2023/10/21 10:05:06;;;;;;;0.17;0.17;;;;;;;21.86;42.77;100663.88;5035709;28;20463;-83
2023/10/21 10:07:35;;;;;;;0.40;0.40;;;;;;;22.03;42.26;100658.47;5031350;28;20903;-83
2023/10/21 10:10:05;;;;;;;0.57;0.43;;;;;;;22.22;42.29;100653.59;5031295;28;20393;-85
2023/10/21 10:12:43;;;;;;;1.13;0.38;;;;;;;22.12;42.53;100641.59;5033844;28;20414;-84
2023/10/21 10:15:44;;;;;;;0.38;0.35;;;;;;;22.15;42.49;100645.72;5015246;28;20472;-83
2023/10/21 10:18:19;;;;;;;0.40;0.40;;;;;;;21.89;43.32;100636.41;5026861;28;20398;-84
2023/10/21 10:20:57;;;;;;;1.55;0.95;;;;;;;21.86;43.96;100639.59;5036787;28;20394;-84
2023/10/21 10:23:33;;;;;;;0.63;0.37;;;;;;;22.06;43.69;100621.00;5015623;28;20408;-84
2023/10/21 10:26:04;;;;;;;0.40;0.40;;;;;;;22.38;43.10;100630.34;5029358;28;20390;-85
2023/10/21 10:28:34;;;;;;;1.30;1.00;;;;;;;22.35;43.28;100622.78;5031714;28;20509;-83
2023/10/21 10:31:00;;;;;;;1.13;0.60;;;;;;;22.39;43.15;100621.19;5032543;28;20393;-85
2023/10/21 10:33:33;;;;;;;0.45;0.40;;;;;;;22.29;43.56;100622.72;4999945;28;20492;-84
2023/10/21 10:36:12;;;;;;;1.20;1.10;;;;;;;22.20;44.37;100631.44;5014178;28;20394;-84
2023/10/21 10:38:45;;;;;;;0.20;0.20;;;;;;;22.40;43.98;100617.41;5030538;28;20496;-87
2023/10/21 10:41:15;;;;;;;0.43;0.40;;;;;;;22.79;43.02;100607.34;5016017;28;20933;-85
2023/10/21 10:44:06;;;;;;;1.15;0.82;;;;;;;22.86;43.26;100613.34;5030030;28;20501;-84
2023/10/21 10:47:00;;;;;;;1.00;0.47;;;;;;;22.92;42.18;100603.41;4998379;28;20454;-85
2023/10/21 10:50:01;;;;;;;0.60;0.50;;;;;;;23.19;41.51;100602.63;5031261;28;20413;-85
2023/10/21 10:52:42;;;;;;;1.08;0.50;;;;;;;23.53;39.63;100592.34;5031038;28;20401;-84
2023/10/21 10:55:31;;;;;;;2.00;0.80;;;;;;;23.75;38.38;100583.28;5041022;28;20390;-83
2023/10/21 10:58:11;;;;;;;0.77;0.70;;;;;;;24.05;38.17;100578.06;5041405;28;20422;-84
2023/10/21 11:00:41;;;;;;;0.70;0.70;;;;;;;24.17;37.93;100569.75;5043262;28;20738;-85
2023/10/21 11:03:10;;;;;;;1.80;0.70;;;;;;;24.17;38.28;100558.91;5017822;28;20413;-83
2023/10/21 11:05:40;;;;;;;0.63;0.43;;;;;;;24.45;36.89;100558.72;5032956;28;20465;-85
2023/10/21 11:08:12;;;;;;;0.30;0.30;;;;;;;24.61;36.50;100558.56;5032865;28;20548;-85
2023/10/21 11:10:41;;;;;;;0.57;0.55;;;;;;;24.71;37.18;100565.09;5031588;28;20391;-84
2023/10/21 11:13:10;;;;;;;1.55;0.85;;;;;;;24.81;36.60;100554.22;5031118;28;20466;-84
2023/10/21 11:15:55;;;;;;;0.52;0.50;;;;;;;24.85;37.08;100554.50;5032311;28;20390;-84
2023/10/21 11:18:22;;;;;;;1.40;1.30;;;;;;;24.34;38.24;100550.56;5031943;28;20431;-84
2023/10/21 11:20:50;;;;;;;1.30;1.20;;;;;;;24.22;38.75;100550.81;5033744;28;20421;-85
2023/10/21 11:23:23;;;;;;;1.50;0.90;;;;;;;24.21;39.29;100554.59;5015797;28;20780;-84
2023/10/21 11:25:59;;;;;;;0.60;0.30;;;;;;;24.12;39.90;100544.53;5039913;28;20398;-83
2023/10/21 11:28:28;;;;;;;0.20;0.20;;;;;;;24.07;40.32;100549.94;5033793;28;20414;-86
2023/10/21 11:30:56;;;;;;;0.50;0.30;;;;;;;24.23;40.03;100552.44;5032112;28;20490;-86
2023/10/21 11:33:27;;;;;;;0.80;0.47;;;;;;;24.19;39.93;100548.63;5034418;28;20449;-85